Skip Navigation Links Skip Navigation Links

Current Weather

DuPage County, West Chicago, Ill.

For information only: do not use for flight planning or navigation.
Latest weather
Observation time Wednesday, October 27, 2021 12:52 AM CDT
Local time Wednesday, October 27, 2021 1:04 AM CDT
Flight conditions Visual Meteorological Conditions
Winds
Wind direction North (350°)
Wind speed 3 mph
Visibility 10 mi.
Sky condition
Ceiling unlimited
Sky clear
Temperature 35°F
Dewpoint 33°F
Altimeter 30.02 in.Hg
Pressure change last 3 hours0.02 in.Hg
Pressure falling, then rising
Derived measurements
Relative humidity 92%
Wind chill 32°F
Density altitude -880 ft.
Sea-level pressure 30.03 in.Hg
Climate data
Temperature minimum, last 6 hours 35°F
Temperature maximum, last 6 hours 49°F
Temperature minimum, last 24 hours 35°F
Temperature maximum, last 24 hours 59°F
Remarks
Automated weather observing station with precipitation discriminator.
METAR KDPA 270552Z 35003KT 10SM CLR 02/01 A3002 RMK AO2 SLP170 T00170006 10094 20017 401500017 55008

Settings

Location code

InnerDrive.Weather 4.0.6770.0 Release CLR 4.0.30319.42000
Copyright ©2018 Inner Drive Technology. All rights reserved. Portions Copyright ©1986-2018 David Braverman.

Find weather

Site navigation


Skip Navigation Links

Place info

Page info

PayPal - The safer, easier way to pay online!

Return home.

Copyright ©2021 Inner Drive Technology. Purveyors of fine, hand-crafted computer software. Page printed 2021-10-27T06:04:42 UTC.